sensor_id;sensor_type;location;lat;lon;timestamp;P1;durP1;ratioP1;P2;durP2;ratioP2
66371;SDS011;53168;51.146;17.120;2023-11-19T00:01:17;32.11;;;29.84;;
66371;SDS011;53168;51.146;17.120;2023-11-19T00:07:16;32.44;;;29.82;;
66371;SDS011;53168;51.146;17.120;2023-11-19T00:10:12;34.47;;;32.00;;
66371;SDS011;53168;51.146;17.120;2023-11-19T00:12:53;31.86;;;29.56;;
66371;SDS011;53168;51.146;17.120;2023-11-19T00:15:28;29.86;;;27.51;;
66371;SDS011;53168;51.146;17.120;2023-11-19T00:18:07;31.56;;;29.15;;
66371;SDS011;53168;51.146;17.120;2023-11-19T00:20:41;32.87;;;29.67;;
66371;SDS011;53168;51.146;17.120;2023-11-19T00:23:15;30.86;;;28.91;;
66371;SDS011;53168;51.146;17.120;2023-11-19T00:25:49;28.35;;;25.92;;
66371;SDS011;53168;51.146;17.120;2023-11-19T00:28:24;33.85;;;30.66;;
66371;SDS011;53168;51.146;17.120;2023-11-19T00:31:00;33.30;;;29.58;;
66371;SDS011;53168;51.146;17.120;2023-11-19T00:33:35;31.61;;;29.02;;
66371;SDS011;53168;51.146;17.120;2023-11-19T00:36:19;29.04;;;26.71;;
66371;SDS011;53168;51.146;17.120;2023-11-19T00:38:53;33.27;;;30.39;;
66371;SDS011;53168;51.146;17.120;2023-11-19T00:41:32;32.77;;;29.93;;
66371;SDS011;53168;51.146;17.120;2023-11-19T00:44:07;29.90;;;27.60;;
66371;SDS011;53168;51.146;17.120;2023-11-19T00:47:00;33.03;;;30.00;;
66371;SDS011;53168;51.146;17.120;2023-11-19T00:49:35;29.60;;;27.54;;
66371;SDS011;53168;51.146;17.120;2023-11-19T00:52:09;29.97;;;27.53;;
66371;SDS011;53168;51.146;17.120;2023-11-19T00:54:44;31.76;;;28.87;;
66371;SDS011;53168;51.146;17.120;2023-11-19T00:57:19;28.68;;;26.41;;
66371;SDS011;53168;51.146;17.120;2023-11-19T00:59:54;26.93;;;24.87;;
66371;SDS011;53168;51.146;17.120;2023-11-19T01:02:28;29.44;;;26.79;;
66371;SDS011;53168;51.146;17.120;2023-11-19T01:05:04;29.84;;;27.30;;
66371;SDS011;53168;51.146;17.120;2023-11-19T01:07:44;32.22;;;29.42;;
66371;SDS011;53168;51.146;17.120;2023-11-19T01:10:24;26.37;;;24.20;;
66371;SDS011;53168;51.146;17.120;2023-11-19T01:12:58;29.19;;;27.05;;
66371;SDS011;53168;51.146;17.120;2023-11-19T01:15:35;29.86;;;27.19;;
66371;SDS011;53168;51.146;17.120;2023-11-19T01:18:11;28.54;;;26.41;;
66371;SDS011;53168;51.146;17.120;2023-11-19T01:20:49;28.54;;;26.16;;
66371;SDS011;53168;51.146;17.120;2023-11-19T01:23:24;27.60;;;25.21;;
66371;SDS011;53168;51.146;17.120;2023-11-19T01:26:02;29.61;;;26.15;;
66371;SDS011;53168;51.146;17.120;2023-11-19T01:28:41;28.85;;;26.03;;
66371;SDS011;53168;51.146;17.120;2023-11-19T01:34:07;27.39;;;24.82;;
66371;SDS011;53168;51.146;17.120;2023-11-19T01:36:46;28.13;;;25.50;;
66371;SDS011;53168;51.146;17.120;2023-11-19T01:39:21;28.30;;;25.54;;
66371;SDS011;53168;51.146;17.120;2023-11-19T01:42:11;32.59;;;29.43;;
66371;SDS011;53168;51.146;17.120;2023-11-19T01:44:56;29.56;;;27.44;;
66371;SDS011;53168;51.146;17.120;2023-11-19T01:47:39;30.24;;;27.74;;
66371;SDS011;53168;51.146;17.120;2023-11-19T01:50:13;30.49;;;27.47;;
66371;SDS011;53168;51.146;17.120;2023-11-19T01:52:49;31.16;;;28.26;;
66371;SDS011;53168;51.146;17.120;2023-11-19T01:55:27;27.72;;;25.67;;
66371;SDS011;53168;51.146;17.120;2023-11-19T01:58:02;30.24;;;27.45;;
66371;SDS011;53168;51.146;17.120;2023-11-19T02:00:39;29.30;;;27.28;;
66371;SDS011;53168;51.146;17.120;2023-11-19T02:03:17;28.47;;;26.04;;
66371;SDS011;53168;51.146;17.120;2023-11-19T02:08:41;27.15;;;24.99;;
66371;SDS011;53168;51.146;17.120;2023-11-19T02:11:18;27.42;;;24.65;;
66371;SDS011;53168;51.146;17.120;2023-11-19T02:13:53;25.08;;;23.41;;
66371;SDS011;53168;51.146;17.120;2023-11-19T02:16:27;26.61;;;24.42;;
66371;SDS011;53168;51.146;17.120;2023-11-19T02:19:01;26.87;;;24.36;;
66371;SDS011;53168;51.146;17.120;2023-11-19T02:21:38;24.48;;;22.58;;
66371;SDS011;53168;51.146;17.120;2023-11-19T02:24:14;23.94;;;22.50;;
66371;SDS011;53168;51.146;17.120;2023-11-19T02:27:08;25.05;;;23.16;;
66371;SDS011;53168;51.146;17.120;2023-11-19T02:30:08;28.00;;;25.69;;
66371;SDS011;53168;51.146;17.120;2023-11-19T02:32:44;25.38;;;23.40;;
66371;SDS011;53168;51.146;17.120;2023-11-19T02:35:17;23.62;;;21.59;;
66371;SDS011;53168;51.146;17.120;2023-11-19T02:37:52;25.61;;;23.48;;
66371;SDS011;53168;51.146;17.120;2023-11-19T02:43:24;23.36;;;21.26;;
66371;SDS011;53168;51.146;17.120;2023-11-19T02:46:02;28.46;;;25.72;;
66371;SDS011;53168;51.146;17.120;2023-11-19T02:48:43;28.64;;;26.03;;
66371;SDS011;53168;51.146;17.120;2023-11-19T02:51:18;30.44;;;27.72;;
66371;SDS011;53168;51.146;17.120;2023-11-19T02:53:54;27.88;;;25.56;;
66371;SDS011;53168;51.146;17.120;2023-11-19T02:56:29;25.97;;;23.92;;
66371;SDS011;53168;51.146;17.120;2023-11-19T02:59:06;28.89;;;26.31;;
66371;SDS011;53168;51.146;17.120;2023-11-19T03:01:56;31.42;;;28.02;;
66371;SDS011;53168;51.146;17.120;2023-11-19T03:04:31;27.23;;;25.04;;
66371;SDS011;53168;51.146;17.120;2023-11-19T03:07:06;27.07;;;24.65;;
66371;SDS011;53168;51.146;17.120;2023-11-19T03:09:41;26.30;;;24.45;;
66371;SDS011;53168;51.146;17.120;2023-11-19T03:12:16;27.42;;;24.96;;
66371;SDS011;53168;51.146;17.120;2023-11-19T03:14:50;28.46;;;25.80;;
66371;SDS011;53168;51.146;17.120;2023-11-19T03:17:26;27.61;;;25.20;;
66371;SDS011;53168;51.146;17.120;2023-11-19T03:20:01;26.99;;;24.68;;
66371;SDS011;53168;51.146;17.120;2023-11-19T03:22:44;27.03;;;23.97;;
66371;SDS011;53168;51.146;17.120;2023-11-19T03:25:22;26.23;;;23.55;;
66371;SDS011;53168;51.146;17.120;2023-11-19T03:31:33;29.47;;;26.14;;
66371;SDS011;53168;51.146;17.120;2023-11-19T03:34:07;27.70;;;24.91;;
66371;SDS011;53168;51.146;17.120;2023-11-19T03:36:41;25.64;;;23.54;;
66371;SDS011;53168;51.146;17.120;2023-11-19T03:39:15;30.41;;;27.16;;
66371;SDS011;53168;51.146;17.120;2023-11-19T03:41:50;33.06;;;28.53;;
66371;SDS011;53168;51.146;17.120;2023-11-19T03:44:24;25.70;;;23.15;;
66371;SDS011;53168;51.146;17.120;2023-11-19T03:47:33;27.58;;;25.28;;
66371;SDS011;53168;51.146;17.120;2023-11-19T03:50:07;25.74;;;23.66;;
66371;SDS011;53168;51.146;17.120;2023-11-19T03:52:45;26.58;;;23.85;;
66371;SDS011;53168;51.146;17.120;2023-11-19T03:55:21;27.67;;;24.87;;
66371;SDS011;53168;51.146;17.120;2023-11-19T03:57:58;28.95;;;26.49;;
66371;SDS011;53168;51.146;17.120;2023-11-19T04:00:33;27.53;;;25.09;;
66371;SDS011;53168;51.146;17.120;2023-11-19T04:03:09;28.45;;;26.09;;
66371;SDS011;53168;51.146;17.120;2023-11-19T04:05:43;25.09;;;22.52;;
66371;SDS011;53168;51.146;17.120;2023-11-19T04:08:23;24.23;;;22.05;;
66371;SDS011;53168;51.146;17.120;2023-11-19T04:10:59;23.01;;;20.55;;
66371;SDS011;53168;51.146;17.120;2023-11-19T04:13:35;25.79;;;23.06;;
66371;SDS011;53168;51.146;17.120;2023-11-19T04:16:09;26.23;;;23.84;;
66371;SDS011;53168;51.146;17.120;2023-11-19T04:18:44;26.76;;;24.25;;
66371;SDS011;53168;51.146;17.120;2023-11-19T04:21:21;26.45;;;24.26;;
66371;SDS011;53168;51.146;17.120;2023-11-19T04:23:58;25.15;;;22.87;;
66371;SDS011;53168;51.146;17.120;2023-11-19T04:26:33;25.80;;;23.44;;
66371;SDS011;53168;51.146;17.120;2023-11-19T04:29:10;27.37;;;24.32;;
66371;SDS011;53168;51.146;17.120;2023-11-19T04:31:50;25.08;;;22.59;;
66371;SDS011;53168;51.146;17.120;2023-11-19T04:34:24;25.11;;;23.34;;
66371;SDS011;53168;51.146;17.120;2023-11-19T04:36:58;20.99;;;19.51;;
66371;SDS011;53168;51.146;17.120;2023-11-19T04:39:36;22.41;;;20.69;;
66371;SDS011;53168;51.146;17.120;2023-11-19T04:42:11;20.88;;;19.51;;
66371;SDS011;53168;51.146;17.120;2023-11-19T04:44:46;22.40;;;20.64;;
66371;SDS011;53168;51.146;17.120;2023-11-19T04:47:21;22.80;;;21.23;;
66371;SDS011;53168;51.146;17.120;2023-11-19T04:49:55;23.02;;;21.36;;
66371;SDS011;53168;51.146;17.120;2023-11-19T04:52:29;21.90;;;20.41;;
66371;SDS011;53168;51.146;17.120;2023-11-19T04:55:12;22.57;;;20.52;;
66371;SDS011;53168;51.146;17.120;2023-11-19T04:57:55;19.47;;;18.25;;
66371;SDS011;53168;51.146;17.120;2023-11-19T05:00:29;20.82;;;19.46;;
66371;SDS011;53168;51.146;17.120;2023-11-19T05:03:03;21.79;;;19.69;;
66371;SDS011;53168;51.146;17.120;2023-11-19T05:05:41;21.74;;;19.71;;
66371;SDS011;53168;51.146;17.120;2023-11-19T05:08:15;22.64;;;20.70;;
66371;SDS011;53168;51.146;17.120;2023-11-19T05:10:49;23.33;;;21.35;;
66371;SDS011;53168;51.146;17.120;2023-11-19T05:13:23;21.06;;;19.44;;
66371;SDS011;53168;51.146;17.120;2023-11-19T05:15:57;19.69;;;18.29;;
66371;SDS011;53168;51.146;17.120;2023-11-19T05:18:31;21.35;;;19.32;;
66371;SDS011;53168;51.146;17.120;2023-11-19T05:21:05;22.02;;;20.11;;
66371;SDS011;53168;51.146;17.120;2023-11-19T05:23:40;21.15;;;19.20;;
66371;SDS011;53168;51.146;17.120;2023-11-19T05:26:18;18.60;;;17.30;;
66371;SDS011;53168;51.146;17.120;2023-11-19T05:28:55;18.14;;;16.93;;
66371;SDS011;53168;51.146;17.120;2023-11-19T05:31:29;19.19;;;17.61;;
66371;SDS011;53168;51.146;17.120;2023-11-19T05:34:09;17.68;;;16.50;;
66371;SDS011;53168;51.146;17.120;2023-11-19T05:36:45;18.29;;;16.75;;
66371;SDS011;53168;51.146;17.120;2023-11-19T05:39:19;19.05;;;17.51;;
66371;SDS011;53168;51.146;17.120;2023-11-19T05:41:54;19.42;;;17.61;;
66371;SDS011;53168;51.146;17.120;2023-11-19T05:44:28;20.62;;;18.89;;
66371;SDS011;53168;51.146;17.120;2023-11-19T05:47:02;18.90;;;17.50;;
66371;SDS011;53168;51.146;17.120;2023-11-19T05:49:37;19.59;;;17.85;;
66371;SDS011;53168;51.146;17.120;2023-11-19T05:52:11;19.10;;;17.52;;
66371;SDS011;53168;51.146;17.120;2023-11-19T05:57:45;19.85;;;18.24;;
66371;SDS011;53168;51.146;17.120;2023-11-19T06:00:22;21.90;;;20.18;;
66371;SDS011;53168;51.146;17.120;2023-11-19T06:02:56;22.71;;;20.82;;
66371;SDS011;53168;51.146;17.120;2023-11-19T06:05:31;22.98;;;20.77;;
66371;SDS011;53168;51.146;17.120;2023-11-19T06:08:05;19.00;;;17.61;;
66371;SDS011;53168;51.146;17.120;2023-11-19T06:10:39;17.84;;;16.47;;
66371;SDS011;53168;51.146;17.120;2023-11-19T06:13:16;18.60;;;17.04;;
66371;SDS011;53168;51.146;17.120;2023-11-19T06:15:53;19.62;;;17.71;;
66371;SDS011;53168;51.146;17.120;2023-11-19T06:18:28;18.90;;;17.51;;
66371;SDS011;53168;51.146;17.120;2023-11-19T06:21:02;19.00;;;17.19;;
66371;SDS011;53168;51.146;17.120;2023-11-19T06:23:37;19.81;;;17.84;;
66371;SDS011;53168;51.146;17.120;2023-11-19T06:26:11;20.53;;;19.13;;
66371;SDS011;53168;51.146;17.120;2023-11-19T06:28:45;18.94;;;17.24;;
66371;SDS011;53168;51.146;17.120;2023-11-19T06:31:19;18.33;;;16.78;;
66371;SDS011;53168;51.146;17.120;2023-11-19T06:33:54;19.99;;;18.28;;
66371;SDS011;53168;51.146;17.120;2023-11-19T06:36:28;17.55;;;16.14;;
66371;SDS011;53168;51.146;17.120;2023-11-19T06:39:03;19.37;;;17.77;;
66371;SDS011;53168;51.146;17.120;2023-11-19T06:41:40;19.93;;;17.80;;
66371;SDS011;53168;51.146;17.120;2023-11-19T06:44:18;18.64;;;17.24;;
66371;SDS011;53168;51.146;17.120;2023-11-19T06:46:56;16.90;;;15.70;;
66371;SDS011;53168;51.146;17.120;2023-11-19T06:49:31;16.16;;;14.87;;
66371;SDS011;53168;51.146;17.120;2023-11-19T06:52:05;18.63;;;16.83;;
66371;SDS011;53168;51.146;17.120;2023-11-19T06:54:40;17.89;;;16.59;;
66371;SDS011;53168;51.146;17.120;2023-11-19T06:57:16;16.95;;;15.81;;
66371;SDS011;53168;51.146;17.120;2023-11-19T06:59:50;17.54;;;16.09;;
66371;SDS011;53168;51.146;17.120;2023-11-19T07:02:28;16.78;;;15.26;;
66371;SDS011;53168;51.146;17.120;2023-11-19T07:05:03;16.03;;;15.01;;
66371;SDS011;53168;51.146;17.120;2023-11-19T07:07:40;14.84;;;13.92;;
66371;SDS011;53168;51.146;17.120;2023-11-19T07:10:16;15.29;;;14.12;;
66371;SDS011;53168;51.146;17.120;2023-11-19T07:12:51;18.23;;;16.51;;
66371;SDS011;53168;51.146;17.120;2023-11-19T07:15:25;16.27;;;15.16;;
66371;SDS011;53168;51.146;17.120;2023-11-19T07:18:00;16.96;;;15.99;;
66371;SDS011;53168;51.146;17.120;2023-11-19T07:20:34;17.08;;;16.18;;
66371;SDS011;53168;51.146;17.120;2023-11-19T07:23:09;20.04;;;18.65;;
66371;SDS011;53168;51.146;17.120;2023-11-19T07:25:46;16.21;;;15.17;;
66371;SDS011;53168;51.146;17.120;2023-11-19T07:28:21;17.78;;;16.88;;
66371;SDS011;53168;51.146;17.120;2023-11-19T07:30:56;17.58;;;16.72;;
66371;SDS011;53168;51.146;17.120;2023-11-19T07:33:30;16.65;;;15.86;;
66371;SDS011;53168;51.146;17.120;2023-11-19T07:36:06;17.44;;;16.51;;
66371;SDS011;53168;51.146;17.120;2023-11-19T07:38:46;18.09;;;16.93;;
66371;SDS011;53168;51.146;17.120;2023-11-19T07:41:21;17.47;;;16.16;;
66371;SDS011;53168;51.146;17.120;2023-11-19T07:43:56;18.03;;;16.77;;
66371;SDS011;53168;51.146;17.120;2023-11-19T07:46:45;18.63;;;17.12;;
66371;SDS011;53168;51.146;17.120;2023-11-19T07:49:23;19.15;;;17.93;;
66371;SDS011;53168;51.146;17.120;2023-11-19T07:52:08;17.83;;;16.66;;
66371;SDS011;53168;51.146;17.120;2023-11-19T07:54:47;17.46;;;16.40;;
66371;SDS011;53168;51.146;17.120;2023-11-19T07:57:22;18.94;;;17.29;;
66371;SDS011;53168;51.146;17.120;2023-11-19T08:00:14;20.37;;;18.76;;
66371;SDS011;53168;51.146;17.120;2023-11-19T08:02:51;19.71;;;18.24;;
66371;SDS011;53168;51.146;17.120;2023-11-19T08:05:32;20.72;;;19.09;;
66371;SDS011;53168;51.146;17.120;2023-11-19T08:08:06;20.34;;;18.89;;
66371;SDS011;53168;51.146;17.120;2023-11-19T08:10:40;18.45;;;17.25;;
66371;SDS011;53168;51.146;17.120;2023-11-19T08:13:30;18.40;;;17.07;;
66371;SDS011;53168;51.146;17.120;2023-11-19T08:16:15;19.77;;;18.67;;
66371;SDS011;53168;51.146;17.120;2023-11-19T08:19:01;19.10;;;18.07;;
66371;SDS011;53168;51.146;17.120;2023-11-19T08:21:38;17.93;;;16.66;;
66371;SDS011;53168;51.146;17.120;2023-11-19T08:24:13;15.73;;;14.64;;
66371;SDS011;53168;51.146;17.120;2023-11-19T08:26:47;17.99;;;17.00;;
66371;SDS011;53168;51.146;17.120;2023-11-19T08:29:29;18.53;;;17.64;;
66371;SDS011;53168;51.146;17.120;2023-11-19T08:32:07;18.30;;;17.10;;
66371;SDS011;53168;51.146;17.120;2023-11-19T08:34:49;19.28;;;17.88;;
66371;SDS011;53168;51.146;17.120;2023-11-19T08:40:23;19.07;;;17.56;;
66371;SDS011;53168;51.146;17.120;2023-11-19T08:43:17;18.45;;;17.39;;
66371;SDS011;53168;51.146;17.120;2023-11-19T08:45:53;16.62;;;15.40;;
66371;SDS011;53168;51.146;17.120;2023-11-19T08:48:38;19.74;;;18.11;;
66371;SDS011;53168;51.146;17.120;2023-11-19T08:51:19;19.50;;;17.89;;
66371;SDS011;53168;51.146;17.120;2023-11-19T08:54:09;17.67;;;16.59;;
66371;SDS011;53168;51.146;17.120;2023-11-19T08:56:46;19.21;;;17.88;;
66371;SDS011;53168;51.146;17.120;2023-11-19T08:59:25;18.44;;;17.44;;
66371;SDS011;53168;51.146;17.120;2023-11-19T09:02:21;17.96;;;17.00;;
66371;SDS011;53168;51.146;17.120;2023-11-19T09:05:06;18.54;;;16.98;;
66371;SDS011;53168;51.146;17.120;2023-11-19T09:07:58;18.24;;;17.06;;
66371;SDS011;53168;51.146;17.120;2023-11-19T09:10:41;20.72;;;18.87;;
66371;SDS011;53168;51.146;17.120;2023-11-19T09:13:24;20.25;;;18.67;;
66371;SDS011;53168;51.146;17.120;2023-11-19T09:16:00;20.49;;;19.03;;
66371;SDS011;53168;51.146;17.120;2023-11-19T09:18:43;20.77;;;18.87;;
66371;SDS011;53168;51.146;17.120;2023-11-19T09:21:20;21.93;;;20.35;;
66371;SDS011;53168;51.146;17.120;2023-11-19T09:23:58;21.36;;;19.90;;
66371;SDS011;53168;51.146;17.120;2023-11-19T09:26:34;22.15;;;20.23;;
66371;SDS011;53168;51.146;17.120;2023-11-19T09:29:13;18.83;;;17.55;;
66371;SDS011;53168;51.146;17.120;2023-11-19T09:34:51;19.30;;;18.04;;
66371;SDS011;53168;51.146;17.120;2023-11-19T09:37:25;18.83;;;17.65;;
66371;SDS011;53168;51.146;17.120;2023-11-19T09:39:59;18.88;;;17.46;;
66371;SDS011;53168;51.146;17.120;2023-11-19T09:42:42;18.90;;;17.50;;
66371;SDS011;53168;51.146;17.120;2023-11-19T09:45:18;19.90;;;18.36;;
66371;SDS011;53168;51.146;17.120;2023-11-19T09:48:18;17.92;;;16.63;;
66371;SDS011;53168;51.146;17.120;2023-11-19T09:50:55;18.71;;;17.49;;
66371;SDS011;53168;51.146;17.120;2023-11-19T09:53:31;17.30;;;16.00;;
66371;SDS011;53168;51.146;17.120;2023-11-19T09:56:07;19.08;;;17.58;;
66371;SDS011;53168;51.146;17.120;2023-11-19T09:58:49;19.44;;;18.17;;
66371;SDS011;53168;51.146;17.120;2023-11-19T10:01:27;19.56;;;18.15;;
66371;SDS011;53168;51.146;17.120;2023-11-19T10:04:18;19.07;;;18.34;;
66371;SDS011;53168;51.146;17.120;2023-11-19T10:06:57;18.20;;;17.24;;
66371;SDS011;53168;51.146;17.120;2023-11-19T10:09:47;19.44;;;18.14;;
66371;SDS011;53168;51.146;17.120;2023-11-19T10:15:42;18.44;;;17.20;;
66371;SDS011;53168;51.146;17.120;2023-11-19T10:18:26;17.01;;;16.21;;
66371;SDS011;53168;51.146;17.120;2023-11-19T10:21:19;16.02;;;15.21;;
66371;SDS011;53168;51.146;17.120;2023-11-19T10:56:36;11.90;;;11.45;;
66371;SDS011;53168;51.146;17.120;2023-11-19T10:59:15;11.95;;;11.55;;
66371;SDS011;53168;51.146;17.120;2023-11-19T11:02:03;9.89;;;9.48;;
66371;SDS011;53168;51.146;17.120;2023-11-19T11:04:46;10.74;;;10.25;;
66371;SDS011;53168;51.146;17.120;2023-11-19T11:07:28;10.25;;;9.71;;
66371;SDS011;53168;51.146;17.120;2023-11-19T11:10:15;10.69;;;10.11;;
66371;SDS011;53168;51.146;17.120;2023-11-19T11:16:11;11.06;;;10.79;;
66371;SDS011;53168;51.146;17.120;2023-11-19T11:18:51;12.36;;;11.86;;
66371;SDS011;53168;51.146;17.120;2023-11-19T11:25:18;11.86;;;11.34;;
66371;SDS011;53168;51.146;17.120;2023-11-19T11:28:16;11.08;;;10.66;;
66371;SDS011;53168;51.146;17.120;2023-11-19T11:31:23;11.60;;;11.21;;
66371;SDS011;53168;51.146;17.120;2023-11-19T11:38:16;14.19;;;12.63;;
66371;SDS011;53168;51.146;17.120;2023-11-19T11:41:16;12.82;;;12.14;;
66371;SDS011;53168;51.146;17.120;2023-11-19T11:44:01;12.04;;;11.76;;
66371;SDS011;53168;51.146;17.120;2023-11-19T11:49:37;12.20;;;11.62;;
66371;SDS011;53168;51.146;17.120;2023-11-19T11:56:00;9.56;;;9.42;;
66371;SDS011;53168;51.146;17.120;2023-11-19T11:58:42;9.16;;;8.95;;
66371;SDS011;53168;51.146;17.120;2023-11-19T12:08:53;8.77;;;8.63;;
66371;SDS011;53168;51.146;17.120;2023-11-19T12:19:03;6.83;;;6.74;;
66371;SDS011;53168;51.146;17.120;2023-11-19T12:21:51;6.93;;;6.91;;
66371;SDS011;53168;51.146;17.120;2023-11-19T12:25:18;7.29;;;7.19;;
66371;SDS011;53168;51.146;17.120;2023-11-19T12:27:55;8.79;;;8.33;;
66371;SDS011;53168;51.146;17.120;2023-11-19T12:30:37;9.04;;;8.32;;
66371;SDS011;53168;51.146;17.120;2023-11-19T12:33:15;10.06;;;9.21;;
66371;SDS011;53168;51.146;17.120;2023-11-19T12:39:54;9.10;;;8.31;;
66371;SDS011;53168;51.146;17.120;2023-11-19T12:42:37;8.18;;;7.67;;
66371;SDS011;53168;51.146;17.120;2023-11-19T12:45:19;6.76;;;6.43;;
66371;SDS011;53168;51.146;17.120;2023-11-19T12:48:10;5.43;;;5.26;;
66371;SDS011;53168;51.146;17.120;2023-11-19T12:51:21;4.85;;;4.75;;
66371;SDS011;53168;51.146;17.120;2023-11-19T12:54:11;5.46;;;5.35;;
66371;SDS011;53168;51.146;17.120;2023-11-19T12:56:53;5.64;;;5.59;;
66371;SDS011;53168;51.146;17.120;2023-11-19T12:59:29;6.61;;;6.52;;
66371;SDS011;53168;51.146;17.120;2023-11-19T13:05:33;6.78;;;6.71;;
66371;SDS011;53168;51.146;17.120;2023-11-19T13:09:20;6.45;;;6.37;;
66371;SDS011;53168;51.146;17.120;2023-11-19T13:12:16;8.57;;;8.03;;
66371;SDS011;53168;51.146;17.120;2023-11-19T13:14:51;8.48;;;8.03;;
66371;SDS011;53168;51.146;17.120;2023-11-19T13:17:26;8.16;;;7.92;;
66371;SDS011;53168;51.146;17.120;2023-11-19T13:20:00;8.39;;;8.27;;
66371;SDS011;53168;51.146;17.120;2023-11-19T13:22:38;9.44;;;9.24;;
66371;SDS011;53168;51.146;17.120;2023-11-19T13:25:28;11.72;;;11.51;;
66371;SDS011;53168;51.146;17.120;2023-11-19T13:28:10;12.43;;;12.28;;
66371;SDS011;53168;51.146;17.120;2023-11-19T13:30:47;12.65;;;12.44;;
66371;SDS011;53168;51.146;17.120;2023-11-19T13:33:33;14.27;;;13.78;;
66371;SDS011;53168;51.146;17.120;2023-11-19T13:36:08;13.98;;;13.34;;
66371;SDS011;53168;51.146;17.120;2023-11-19T13:38:50;14.20;;;13.62;;
66371;SDS011;53168;51.146;17.120;2023-11-19T13:41:30;13.77;;;13.35;;
66371;SDS011;53168;51.146;17.120;2023-11-19T13:44:04;15.95;;;15.51;;
66371;SDS011;53168;51.146;17.120;2023-11-19T13:46:38;19.16;;;18.61;;
66371;SDS011;53168;51.146;17.120;2023-11-19T13:49:16;18.17;;;17.53;;
66371;SDS011;53168;51.146;17.120;2023-11-19T13:51:55;14.72;;;14.28;;
66371;SDS011;53168;51.146;17.120;2023-11-19T13:54:29;14.43;;;14.17;;
66371;SDS011;53168;51.146;17.120;2023-11-19T13:57:06;13.33;;;13.14;;
66371;SDS011;53168;51.146;17.120;2023-11-19T13:59:43;14.69;;;14.46;;
66371;SDS011;53168;51.146;17.120;2023-11-19T14:02:19;15.43;;;15.31;;
66371;SDS011;53168;51.146;17.120;2023-11-19T14:05:00;15.17;;;14.94;;
66371;SDS011;53168;51.146;17.120;2023-11-19T14:07:35;13.98;;;13.87;;
66371;SDS011;53168;51.146;17.120;2023-11-19T14:10:10;12.33;;;12.15;;
66371;SDS011;53168;51.146;17.120;2023-11-19T14:12:45;12.85;;;12.70;;
66371;SDS011;53168;51.146;17.120;2023-11-19T14:15:26;33.18;;;32.57;;
66371;SDS011;53168;51.146;17.120;2023-11-19T14:18:00;23.06;;;22.69;;
66371;SDS011;53168;51.146;17.120;2023-11-19T14:20:43;15.37;;;15.23;;
66371;SDS011;53168;51.146;17.120;2023-11-19T14:26:05;11.70;;;11.63;;
66371;SDS011;53168;51.146;17.120;2023-11-19T14:28:51;11.35;;;11.25;;
66371;SDS011;53168;51.146;17.120;2023-11-19T14:31:56;11.53;;;11.43;;
66371;SDS011;53168;51.146;17.120;2023-11-19T14:34:44;12.09;;;12.07;;
66371;SDS011;53168;51.146;17.120;2023-11-19T14:37:20;12.15;;;12.07;;
66371;SDS011;53168;51.146;17.120;2023-11-19T14:39:57;11.86;;;11.66;;
66371;SDS011;53168;51.146;17.120;2023-11-19T14:42:35;12.65;;;12.46;;
66371;SDS011;53168;51.146;17.120;2023-11-19T14:45:20;12.40;;;12.28;;
66371;SDS011;53168;51.146;17.120;2023-11-19T14:48:14;12.89;;;12.84;;
66371;SDS011;53168;51.146;17.120;2023-11-19T14:53:53;12.93;;;12.81;;
66371;SDS011;53168;51.146;17.120;2023-11-19T14:56:29;13.65;;;13.52;;
66371;SDS011;53168;51.146;17.120;2023-11-19T15:03:17;14.02;;;13.87;;
66371;SDS011;53168;51.146;17.120;2023-11-19T15:06:27;15.15;;;14.94;;
66371;SDS011;53168;51.146;17.120;2023-11-19T15:09:04;15.26;;;15.13;;
66371;SDS011;53168;51.146;17.120;2023-11-19T15:12:08;15.84;;;15.59;;
66371;SDS011;53168;51.146;17.120;2023-11-19T15:17:44;14.20;;;14.02;;
66371;SDS011;53168;51.146;17.120;2023-11-19T15:21:13;13.67;;;13.49;;
66371;SDS011;53168;51.146;17.120;2023-11-19T15:24:22;13.82;;;13.75;;
66371;SDS011;53168;51.146;17.120;2023-11-19T15:30:29;14.53;;;14.52;;
66371;SDS011;53168;51.146;17.120;2023-11-19T15:33:12;13.40;;;13.39;;
66371;SDS011;53168;51.146;17.120;2023-11-19T15:35:49;12.95;;;12.89;;
66371;SDS011;53168;51.146;17.120;2023-11-19T15:38:23;13.29;;;13.21;;
66371;SDS011;53168;51.146;17.120;2023-11-19T15:40:58;13.30;;;13.23;;
66371;SDS011;53168;51.146;17.120;2023-11-19T15:46:43;13.32;;;13.27;;
66371;SDS011;53168;51.146;17.120;2023-11-19T15:49:44;13.65;;;13.64;;
66371;SDS011;53168;51.146;17.120;2023-11-19T15:52:48;13.61;;;13.54;;
66371;SDS011;53168;51.146;17.120;2023-11-19T15:55:37;13.05;;;12.95;;
66371;SDS011;53168;51.146;17.120;2023-11-19T16:02:52;25.99;;;25.90;;
66371;SDS011;53168;51.146;17.120;2023-11-19T16:05:57;26.54;;;26.49;;
66371;SDS011;53168;51.146;17.120;2023-11-19T16:08:40;23.87;;;23.72;;
66371;SDS011;53168;51.146;17.120;2023-11-19T16:11:21;25.24;;;24.68;;
66371;SDS011;53168;51.146;17.120;2023-11-19T16:16:56;24.77;;;23.68;;
66371;SDS011;53168;51.146;17.120;2023-11-19T16:19:55;22.86;;;22.02;;
66371;SDS011;53168;51.146;17.120;2023-11-19T16:22:30;15.94;;;15.53;;
66371;SDS011;53168;51.146;17.120;2023-11-19T16:25:07;25.56;;;24.32;;
66371;SDS011;53168;51.146;17.120;2023-11-19T16:27:47;31.97;;;29.65;;
66371;SDS011;53168;51.146;17.120;2023-11-19T16:30:49;28.47;;;27.26;;
66371;SDS011;53168;51.146;17.120;2023-11-19T16:37:19;14.97;;;14.71;;
66371;SDS011;53168;51.146;17.120;2023-11-19T16:40:04;18.93;;;18.37;;
66371;SDS011;53168;51.146;17.120;2023-11-19T16:42:41;19.24;;;18.82;;
66371;SDS011;53168;51.146;17.120;2023-11-19T16:45:18;15.49;;;15.32;;
66371;SDS011;53168;51.146;17.120;2023-11-19T16:47:53;15.47;;;15.15;;
66371;SDS011;53168;51.146;17.120;2023-11-19T16:50:27;15.30;;;14.96;;
66371;SDS011;53168;51.146;17.120;2023-11-19T16:56:27;14.31;;;14.02;;
66371;SDS011;53168;51.146;17.120;2023-11-19T17:05:43;14.42;;;14.01;;
66371;SDS011;53168;51.146;17.120;2023-11-19T17:08:18;19.97;;;18.88;;
66371;SDS011;53168;51.146;17.120;2023-11-19T17:10:57;26.77;;;25.00;;
66371;SDS011;53168;51.146;17.120;2023-11-19T17:13:49;43.75;;;38.26;;
66371;SDS011;53168;51.146;17.120;2023-11-19T17:16:35;33.77;;;29.97;;
66371;SDS011;53168;51.146;17.120;2023-11-19T17:19:17;24.89;;;23.23;;
66371;SDS011;53168;51.146;17.120;2023-11-19T17:21:56;22.18;;;20.96;;
66371;SDS011;53168;51.146;17.120;2023-11-19T17:24:30;22.19;;;21.03;;
66371;SDS011;53168;51.146;17.120;2023-11-19T17:27:16;27.13;;;25.19;;
66371;SDS011;53168;51.146;17.120;2023-11-19T17:30:01;31.14;;;28.75;;
66371;SDS011;53168;51.146;17.120;2023-11-19T17:32:41;23.30;;;23.15;;
66371;SDS011;53168;51.146;17.120;2023-11-19T17:35:17;21.52;;;21.22;;
66371;SDS011;53168;51.146;17.120;2023-11-19T17:37:55;14.42;;;14.41;;
66371;SDS011;53168;51.146;17.120;2023-11-19T17:40:30;12.13;;;12.08;;
66371;SDS011;53168;51.146;17.120;2023-11-19T17:43:04;10.82;;;10.71;;
66371;SDS011;53168;51.146;17.120;2023-11-19T17:45:44;11.47;;;11.20;;